Station COXA2 - Cordova, AK Image indicating link to RSS feed of recent meteorological observations for station COXA2


Conditions at COXA2 as of
(11:52 am AKDT)
1952 GMT on 08/31/2026:
     

Click on the graph icon in the table below to see a time series plot of the last five days of that observation.

5-day plot - Wind Direction Wind Direction (WDIR): E ( 100 deg true )
5-day plot - Wind Speed Wind Speed (WSPD): 2.9 kts
5-day plot - Wind Gust Wind Gust (GST): 5.1 kts
5-day plot - Atmospheric Pressure Atmospheric Pressure (PRES):29.37 in
5-day plot - Air Temperature Air Temperature (ATMP): 50.7 °F
5-day plot - Dew Point Dew Point (DEWP): 42.4 °F
5-day plot - Wind Chill Wind Chill (CHILL): 50.2 °F
5-day plot - Wind Speed at 10 Meters Wind Speed at 10 meters (WSPD10M): 3.9 kts
5-day plot - Wind Speed at 20 Meters Wind Speed at 20 meters (WSPD20M): 3.9 kts
5-day plot -  Wind Speed, Wind Gust and Atmospheric Pressure Combined plot of Wind Speed, Gust, and Air Pressure
Previous observations
TIME
(AKDT)
5-day plot - Wind Direction
WDIR
 
5-day plot - Wind Speed
WSPD
kts
5-day plot - Wind Gust
GST
kts
5-day plot - Wave Height
WVHT
ft
5-day plot - Dominant Wave Period
DPD
sec
5-day plot - Average Wave Period
APD
sec
5-day plot - Mean Wave Direction
MWD
 
5-day plot - Atmospheric Pressure
PRES
in
5-day plot - Pressure Tendency
PTDY
in
5-day plot - Air Temperature
ATMP
°F
5-day plot - Water Temperature
WTMP
°F
5-day plot - Dew Point
DEWP
°F
5-day plot - Salinity
SAL
psu
5-day plot - Visibility
VIS
nmi
5-day plot - Tide (above MLLW)
TIDE
ft
2026-08-31 11:42 am E 1.9 4.1----29.37- 51.3- 43.0---
2026-08-31 11:32 am E 1.0 1.9----29.38- 51.8- 42.6---
2026-08-31 11:22 amESE 1.9 2.9----29.38- 51.6- 42.8---
2026-08-31 11:12 am- 0.0 1.9----29.38- 51.8- 42.3---
2026-08-31 11:02 am- 0.0 1.9----29.39- 51.8- 41.9---
2026-08-31 10:52 am- 0.0 1.9----29.39- 51.8- 41.9---
2026-08-31 10:42 am W 1.0 1.9----29.39- 51.4- 41.5---
2026-08-31 10:32 am- 0.0 1.9----29.40- 51.4- 41.2---
2026-08-31 10:22 am NW 1.0 1.9----29.40- 51.4- 41.5---
2026-08-31 10:12 am W 1.0 1.9----29.41- 51.1- 41.2---
2026-08-31 10:02 am W 1.0 1.9----29.41- 51.3- 41.0---
2026-08-31 09:52 am NW 1.0 1.9----29.41- 51.1- 40.5---
2026-08-31 09:42 am NW 1.0 1.9----29.42- 50.9- 41.0---
2026-08-31 09:32 amNNW 1.9 2.9----29.42- 50.5- 40.8---
2026-08-31 09:22 am NW 1.9 2.9----29.43- 50.5- 41.2---
2026-08-31 09:12 am NW 1.9 2.9----29.43- 50.7- 41.4---
2026-08-31 09:02 amWNW 1.9 2.9----29.44- 50.5- 41.5---
2026-08-31 08:52 am W 1.9 2.9----29.44- 50.4- 41.7---
2026-08-31 08:42 amWSW 1.9 2.9----29.44- 50.5- 41.9---
2026-08-31 08:32 am S 1.0 1.9----29.45- 50.5- 42.3---
2026-08-31 08:22 am- 0.0 1.9----29.45- 50.5- 42.3---
2026-08-31 08:12 amNNW 1.0 2.9----29.46- 50.2- 41.9---
2026-08-31 08:02 am W 1.9 4.1----29.47- 50.0- 42.1---
2026-08-31 07:52 amSSW 2.9 4.1----29.47- 50.0- 42.8---
2026-08-31 07:42 am W 1.9 4.1----29.47- 49.8- 42.3---
2026-08-31 07:32 am- 0.0 1.9----29.47- 50.0- 42.8---
2026-08-31 07:22 amSSE 1.0 1.9----29.47- 49.6- 42.4---
2026-08-31 07:12 am NE 1.0 1.9----29.48- 50.0- 42.1---
2026-08-31 07:02 am E 1.9 1.9----29.48- 50.0- 42.1---
2026-08-31 06:52 am E 1.9 2.9----29.48- 50.2- 41.9---
2026-08-31 06:42 amENE 1.9 2.9----29.48- 50.2- 41.9---
2026-08-31 06:32 amENE 2.9 5.1----29.49- 50.2- 42.6---
2026-08-31 06:22 amENE 1.9 4.1----29.49- 49.8- 42.3---
2026-08-31 06:12 am E 2.9 5.1----29.50- 50.0- 42.4---
2026-08-31 06:02 am E 2.9 5.1----29.51- 50.2- 42.3---
2026-08-31 05:52 am E 2.9 6.0----29.51- 50.4- 42.1---
2026-08-31 05:42 amENE 1.9 5.1----29.52- 50.5- 41.5---
2026-08-31 05:32 am E 5.1 7.0----29.52- 50.4- 42.1---
2026-08-31 05:12 am E 2.9 5.1----29.53- 50.9- 40.6---
2026-08-31 05:02 am E 5.1 8.0----29.53- 50.7- 40.5---
2026-08-31 04:52 am E 5.1 8.9----29.54- 51.1- 40.5---
2026-08-31 04:42 amESE 4.1 8.0----29.54- 51.3- 41.7---
2026-08-31 04:32 am E 2.9 4.1----29.55- 51.3- 43.0---
2026-08-31 04:22 am W 1.0 2.9----29.55- 51.4- 41.9---
2026-08-31 04:12 amNNE 1.9 6.0----29.55- 51.4- 41.5---
2026-08-31 04:02 am N 2.9 6.0----29.55- 52.0- 40.6---
2026-08-31 03:52 amWNW 5.1 8.0----29.55- 52.3- 40.1---
2026-08-31 03:42 amSSW 1.9 4.1----29.56- 53.2- 43.7---
2026-08-31 03:32 am SW 1.9 4.1----29.56- 53.2- 44.4---
2026-08-31 03:22 amSSW 1.9 2.9----29.56- 53.2- 44.4---
2026-08-31 03:12 amSSW 1.0 1.9----29.56- 53.4- 45.3---
2026-08-31 03:02 am- 0.0 1.9----29.57- 53.4- 45.3---
2026-08-31 02:52 amENE 1.9 2.9----29.57- 53.4- 45.0---
2026-08-31 02:42 amNNE 1.9 2.9----29.58- 53.6- 45.1---
2026-08-31 02:32 am N 1.9 2.9----29.59- 53.4- 45.3---
2026-08-31 02:22 amNNE 1.9 5.1----29.59- 53.6- 45.1---
2026-08-31 02:12 am N 2.9 8.0----29.59- 53.4- 44.2---
2026-08-31 02:02 am N 4.1 8.9----29.59- 53.8- 44.2---
2026-08-31 01:52 am E 2.9 6.0----29.60- 54.9- 45.7---
2026-08-31 01:42 amESE 2.9 5.1----29.60- 54.9- 45.3---
2026-08-31 01:32 am SE 2.9 7.0----29.61- 55.8- 43.3---
2026-08-31 01:22 am E 5.1 7.0----29.62- 55.2- 45.1---
2026-08-31 01:12 amESE 4.1 7.0----29.62- 55.8- 43.3---
2026-08-31 01:02 amNNE 1.9 5.1----29.62- 55.9- 43.9---
2026-08-31 12:52 am E 2.9 8.0----29.62- 55.9- 44.4---
2026-08-31 12:42 amESE 6.0 11.1----29.62- 56.1- 43.7---
2026-08-31 12:32 amESE 8.9 15.9----29.63- 56.3- 43.9---
2026-08-31 12:22 amESE 8.0 17.1----29.63- 56.1- 43.7---
2026-08-31 12:12 amESE 7.0 15.0----29.64- 55.8- 44.6---
2026-08-31 12:02 amESE 7.0 18.1----29.65- 55.4- 42.6---
2026-08-30 11:52 pmESE 5.1 13.0----29.65- 57.0- 42.4---
2026-08-30 11:42 pmESE 2.9 8.0----29.66- 57.4- 42.8---
2026-08-30 11:32 pmENE 2.9 8.0----29.67- 57.4- 42.8---
2026-08-30 11:22 pm SE 2.9 7.0----29.67- 57.0- 41.9---
2026-08-30 11:12 pmSSE 4.1 8.9----29.67- 57.2- 42.6---
2026-08-30 11:02 pmESE 2.9 8.9----29.67- 57.4- 42.8---
2026-08-30 10:52 pmWSW 4.1 8.0----29.67- 57.4- 40.8---
2026-08-30 10:42 pm N 2.9 6.0----29.67- 57.4- 41.4---
2026-08-30 10:32 pm N 4.1 11.1----29.67- 57.4- 41.4---
2026-08-30 10:22 pm SE 1.9 6.0----29.68- 57.4- 41.7---
2026-08-30 10:12 pmESE 1.9 8.9----29.68- 57.4- 40.8---
2026-08-30 10:02 pmSSE 4.1 7.0----29.68- 57.4- 40.5---
2026-08-30 09:52 pm SE 6.0 9.9----29.69- 57.2- 41.2---
2026-08-30 09:42 pm SE 5.1 8.0----29.69- 57.4- 41.4---
2026-08-30 09:32 pmESE 4.1 7.0----29.70- 57.2- 42.6---
2026-08-30 09:22 pm SE 6.0 9.9----29.70- 57.0- 43.3---
2026-08-30 09:12 pm E 6.0 13.0----29.70- 57.4- 43.2---
2026-08-30 09:02 pm E 7.0 15.0----29.69- 57.9- 42.3---
2026-08-30 08:52 pm E 6.0 9.9----29.69- 58.5- 40.5---
2026-08-30 08:42 pm E 7.0 12.0----29.70- 58.5- 37.2---
2026-08-30 08:32 pm E 7.0 12.0----29.72- 58.1- 41.0---
2026-08-30 08:22 pm E 5.1 8.9----29.72- 58.5- 38.8---
2026-08-30 08:12 pm E 5.1 8.0----29.73- 58.6- 37.9---
2026-08-30 08:02 pm E 5.1 8.0----29.73- 58.8- 37.6---
2026-08-30 07:52 pm E 4.1 6.0----29.73- 58.8- 38.1---
2026-08-30 07:42 pm E 4.1 6.0----29.74- 59.0- 38.3---
2026-08-30 07:32 pm E 4.1 6.0----29.74- 59.4- 36.9---
2026-08-30 07:22 pm E 1.9 2.9----29.75- 59.4- 37.4---
2026-08-30 07:12 pmESE 1.0 2.9----29.75- 59.5- 33.8---
2026-08-30 07:02 pm S 1.9 1.9----29.75- 59.2- 30.7---
2026-08-30 06:52 pm S 1.9 2.9----29.75- 59.0- 38.3---
2026-08-30 06:42 pm- 0.0 1.9----29.75- 59.7- 34.7---
2026-08-30 06:32 pmWNW 1.0 1.9----29.76- 59.7- 34.7---
2026-08-30 06:22 pm S 1.9 2.9----29.76- 59.9- 34.9---
2026-08-30 06:12 pmSSW 1.0 2.9----29.76- 60.3- 36.5---
2026-08-30 06:02 pmWSW 1.9 2.9----29.77- 61.2- 30.2---
2026-08-30 05:52 pm SW 1.0 1.9----29.76- 61.7- 29.8---
2026-08-30 05:42 pm NW 1.0 1.9----29.77- 61.5- 30.6---
2026-08-30 05:32 pm W 1.0 2.9----29.77- 61.3- 32.7---
2026-08-30 05:22 pm NW 1.9 2.9----29.77- 61.7- 33.8---
2026-08-30 05:12 pmWNW 1.9 2.9----29.78- 61.2- 34.7---
2026-08-30 05:02 pmWNW 1.9 2.9----29.78- 60.8- 35.1---
2026-08-30 04:52 pm W 1.9 4.1----29.78- 60.3- 36.5---
2026-08-30 04:42 pmWSW 2.9 4.1----29.78- 61.2- 34.7---
2026-08-30 04:32 pmWSW 2.9 5.1----29.78- 60.6- 33.4---
2026-08-30 04:22 pmWSW 5.1 7.0----29.78- 60.3- 33.8---
2026-08-30 04:12 pm W 2.9 6.0----29.78- 60.3- 36.5---
2026-08-30 04:02 pm W 5.1 8.9----29.79- 61.0- 37.8---
2026-08-30 03:52 pm W 4.1 7.0----29.79- 62.2- 32.7---
2026-08-30 03:42 pmWNW 2.9 6.0----29.79- 63.3-----
2026-08-30 03:32 pmWNW 2.9 6.0----29.79- 62.8-----
2026-08-30 03:22 pmWNW 2.9 8.0----29.80- 63.3-----
2026-08-30 03:12 pmWNW 4.1 7.0----29.80- 61.5-----
2026-08-30 03:02 pmWSW 5.1 8.0----29.80- 60.1- 37.6---
2026-08-30 02:52 pmWSW 5.1 8.0----29.80- 60.8- 34.3---
2026-08-30 02:42 pmWSW 5.1 8.0----29.80- 61.0- 33.1---
2026-08-30 02:32 pmWSW 6.0 9.9----29.80- 60.8- 30.0---
2026-08-30 02:22 pmWSW 5.1 8.9----29.80- 60.8- 30.7---
2026-08-30 02:12 pm W 5.1 7.0----29.80- 61.2- 31.8---
2026-08-30 02:02 pmWSW 6.0 8.9----29.80- 62.1- 25.7---
2026-08-30 01:52 pm SW 7.0 8.9----29.80- 63.3-----
2026-08-30 01:42 pmWSW 8.0 9.9----29.80- 62.6-----
2026-08-30 01:32 pmWSW 6.0 8.9----29.80- 62.8-----
2026-08-30 01:22 pmWSW 6.0 8.9----29.80- 61.9- 22.6---
2026-08-30 01:12 pmNNW 2.9 5.1----29.80- 66.0-----
2026-08-30 01:02 pmWNW 1.9 4.1----29.80- 64.9-----
2026-08-30 12:52 pmWNW 1.9 2.9----29.80- 66.2-----
2026-08-30 12:42 pmNNW 2.9 4.1----29.81- 65.3-----
2026-08-30 12:32 pmNNW 2.9 4.1----29.80- 64.6-----
2026-08-30 12:22 pmNNW 1.0 4.1----29.80- 64.8-----
2026-08-30 12:12 pm N 2.9 6.0----29.81- 64.2-----
2026-08-30 12:02 pmNNW 1.9 4.1----29.81- 63.5-----
2026-08-30 11:52 amNNW 4.1 7.0----29.81- 63.1-----